<?xml version="1.0" encoding="UTF-8" standalone="no" ?>
<gpx xmlns="http://www.topografix.com/GPX/1/1" xmlns:xsi="http://www.w3.org/2001/XMLSchema-instance" xsi:schemaLocation="http://www.topografix.com/GPX/1/1 http://www.topografix.com/GPX/1/1/gpx.xsd" version="1.1" creator="VisuGPX - https://www.visugpx.com">
  <metadata>
    <name>Edirne-Zagreb</name>
  </metadata>
  <trk>
    <name><![CDATA[Tour d'Europe: étape 697]]></name>
    <extensions>
      <line xmlns="http://www.topografix.com/GPX/gpx_style/0/2">
        <color>008800</color>
        <width>4</width>
      </line>
    </extensions>
    <trkseg>
      <trkpt lat="42.06437" lon="19.50834">
        <ele>63.15614</ele>
        <time>2022-05-26T07:51:39.243Z</time>
      </trkpt>
      <trkpt lat="42.06471" lon="19.50842">
        <ele>63.583097</ele>
        <time>2022-05-26T07:57:14.237Z</time>
      </trkpt>
      <trkpt lat="42.06291" lon="19.5067">
        <ele>66.947285</ele>
        <time>2022-05-26T07:58:09.235Z</time>
      </trkpt>
      <trkpt lat="42.0612" lon="19.50511">
        <ele>66.791933</ele>
        <time>2022-05-26T07:58:52.238Z</time>
      </trkpt>
      <trkpt lat="42.0595" lon="19.50362">
        <ele>70.624549</ele>
        <time>2022-05-26T07:59:32.247Z</time>
      </trkpt>
      <trkpt lat="42.05775" lon="19.50212">
        <ele>75.400899</ele>
        <time>2022-05-26T08:00:20.305Z</time>
      </trkpt>
      <trkpt lat="42.05593" lon="19.50052">
        <ele>70.12126</ele>
        <time>2022-05-26T08:01:18.241Z</time>
      </trkpt>
      <trkpt lat="42.05441" lon="19.49863">
        <ele>66.61971</ele>
        <time>2022-05-26T08:02:05.233Z</time>
      </trkpt>
      <trkpt lat="42.05339" lon="19.49615">
        <ele>60.85957</ele>
        <time>2022-05-26T08:03:01.243Z</time>
      </trkpt>
      <trkpt lat="42.05235" lon="19.49379">
        <ele>54.269772</ele>
        <time>2022-05-26T08:03:43.237Z</time>
      </trkpt>
      <trkpt lat="42.05064" lon="19.49225">
        <ele>55.65904</ele>
        <time>2022-05-26T08:04:35.244Z</time>
      </trkpt>
      <trkpt lat="42.05107" lon="19.48969">
        <ele>54.68344</ele>
        <time>2022-05-26T08:05:49.272Z</time>
      </trkpt>
      <trkpt lat="42.04914" lon="19.48781">
        <ele>58.403801</ele>
        <time>2022-05-26T08:06:45.218Z</time>
      </trkpt>
      <trkpt lat="42.04736" lon="19.48641">
        <ele>57.374651</ele>
        <time>2022-05-26T08:07:25.243Z</time>
      </trkpt>
      <trkpt lat="42.04543" lon="19.48509">
        <ele>54.309109</ele>
        <time>2022-05-26T08:08:13.221Z</time>
      </trkpt>
      <trkpt lat="42.04344" lon="19.48353">
        <ele>53.321672</ele>
        <time>2022-05-26T08:08:53.242Z</time>
      </trkpt>
      <trkpt lat="42.04164" lon="19.48229">
        <ele>54.554231</ele>
        <time>2022-05-26T08:09:34.243Z</time>
      </trkpt>
      <trkpt lat="42.03962" lon="19.48153">
        <ele>53.97182</ele>
        <time>2022-05-26T08:10:14.244Z</time>
      </trkpt>
      <trkpt lat="42.03771" lon="19.48016">
        <ele>54.225201</ele>
        <time>2022-05-26T08:10:54.253Z</time>
      </trkpt>
      <trkpt lat="42.03583" lon="19.47878">
        <ele>53.596921</ele>
        <time>2022-05-26T08:11:34.233Z</time>
      </trkpt>
      <trkpt lat="42.03391" lon="19.47763">
        <ele>53.283945</ele>
        <time>2022-05-26T08:12:14.230Z</time>
      </trkpt>
      <trkpt lat="42.03219" lon="19.47558">
        <ele>57.099011</ele>
        <time>2022-05-26T08:12:54.279Z</time>
      </trkpt>
      <trkpt lat="42.03068" lon="19.47373">
        <ele>54.15462</ele>
        <time>2022-05-26T08:13:35.225Z</time>
      </trkpt>
      <trkpt lat="42.02905" lon="19.47201">
        <ele>54.513945</ele>
        <time>2022-05-26T08:14:21.235Z</time>
      </trkpt>
      <trkpt lat="42.0275" lon="19.47019">
        <ele>54.898734</ele>
        <time>2022-05-26T08:15:01.242Z</time>
      </trkpt>
      <trkpt lat="42.0255" lon="19.46869">
        <ele>58.442578</ele>
        <time>2022-05-26T08:15:52.240Z</time>
      </trkpt>
      <trkpt lat="42.02475" lon="19.46642">
        <ele>58.931336</ele>
        <time>2022-05-26T08:16:40.229Z</time>
      </trkpt>
      <trkpt lat="42.02485" lon="19.46362">
        <ele>59.851825</ele>
        <time>2022-05-26T08:17:31.237Z</time>
      </trkpt>
      <trkpt lat="42.02365" lon="19.46089">
        <ele>53.087293</ele>
        <time>2022-05-26T08:18:18.276Z</time>
      </trkpt>
      <trkpt lat="42.02201" lon="19.45863">
        <ele>51.704906</ele>
        <time>2022-05-26T08:19:01.228Z</time>
      </trkpt>
      <trkpt lat="42.0205" lon="19.4568">
        <ele>53.651906</ele>
        <time>2022-05-26T08:19:41.313Z</time>
      </trkpt>
      <trkpt lat="42.01865" lon="19.4551">
        <ele>54.797911</ele>
        <time>2022-05-26T08:20:21.237Z</time>
      </trkpt>
      <trkpt lat="42.01752" lon="19.45287">
        <ele>56.131613</ele>
        <time>2022-05-26T08:21:01.238Z</time>
      </trkpt>
      <trkpt lat="42.01693" lon="19.44999">
        <ele>58.952039</ele>
        <time>2022-05-26T08:21:49.239Z</time>
      </trkpt>
      <trkpt lat="42.01719" lon="19.44702">
        <ele>63.521773</ele>
        <time>2022-05-26T08:23:01.246Z</time>
      </trkpt>
      <trkpt lat="42.01649" lon="19.44448">
        <ele>61.576603</ele>
        <time>2022-05-26T08:23:56.238Z</time>
      </trkpt>
      <trkpt lat="42.01575" lon="19.4416">
        <ele>57.767622</ele>
        <time>2022-05-26T08:24:40.250Z</time>
      </trkpt>
      <trkpt lat="42.0157" lon="19.43895">
        <ele>58.416861</ele>
        <time>2022-05-26T08:25:22.269Z</time>
      </trkpt>
      <trkpt lat="42.0156" lon="19.43595">
        <ele>56.343159</ele>
        <time>2022-05-26T08:26:02.237Z</time>
      </trkpt>
      <trkpt lat="42.01526" lon="19.43288">
        <ele>53.653358</ele>
        <time>2022-05-26T08:26:42.235Z</time>
      </trkpt>
      <trkpt lat="42.0152" lon="19.42988">
        <ele>53.412948</ele>
        <time>2022-05-26T08:27:22.233Z</time>
      </trkpt>
      <trkpt lat="42.01541" lon="19.42727">
        <ele>53.539757</ele>
        <time>2022-05-26T08:28:07.232Z</time>
      </trkpt>
      <trkpt lat="42.01378" lon="19.42548">
        <ele>51.470485</ele>
        <time>2022-05-26T08:28:45.234Z</time>
      </trkpt>
      <trkpt lat="42.01222" lon="19.42374">
        <ele>52.540603</ele>
        <time>2022-05-26T08:29:25.244Z</time>
      </trkpt>
      <trkpt lat="42.01075" lon="19.42198">
        <ele>53.56405</ele>
        <time>2022-05-26T08:30:05.280Z</time>
      </trkpt>
      <trkpt lat="42.0104" lon="19.41928">
        <ele>54.961447</ele>
        <time>2022-05-26T08:30:53.226Z</time>
      </trkpt>
      <trkpt lat="42.01067" lon="19.41666">
        <ele>55.533857</ele>
        <time>2022-05-26T08:31:33.234Z</time>
      </trkpt>
      <trkpt lat="42.0111" lon="19.41409">
        <ele>55.43053</ele>
        <time>2022-05-26T08:32:14.236Z</time>
      </trkpt>
      <trkpt lat="42.01168" lon="19.4115">
        <ele>53.996012</ele>
        <time>2022-05-26T08:32:56.225Z</time>
      </trkpt>
      <trkpt lat="42.01229" lon="19.40882">
        <ele>53.267377</ele>
        <time>2022-05-26T08:33:36.214Z</time>
      </trkpt>
      <trkpt lat="42.01317" lon="19.40629">
        <ele>52.081896</ele>
        <time>2022-05-26T08:34:16.270Z</time>
      </trkpt>
      <trkpt lat="42.01416" lon="19.40353">
        <ele>51.724153</ele>
        <time>2022-05-26T08:35:08.273Z</time>
      </trkpt>
      <trkpt lat="42.01516" lon="19.40082">
        <ele>53.656395</ele>
        <time>2022-05-26T08:36:02.238Z</time>
      </trkpt>
      <trkpt lat="42.01652" lon="19.39872">
        <ele>58.007286</ele>
        <time>2022-05-26T08:37:11.224Z</time>
      </trkpt>
      <trkpt lat="42.01796" lon="19.3966">
        <ele>59.576094</ele>
        <time>2022-05-26T08:38:19.229Z</time>
      </trkpt>
      <trkpt lat="42.01822" lon="19.39365">
        <ele>56.654232</ele>
        <time>2022-05-26T08:38:59.243Z</time>
      </trkpt>
      <trkpt lat="42.01801" lon="19.39078">
        <ele>53.724206</ele>
        <time>2022-05-26T08:39:39.255Z</time>
      </trkpt>
      <trkpt lat="42.01817" lon="19.38787">
        <ele>53.102284</ele>
        <time>2022-05-26T08:40:19.220Z</time>
      </trkpt>
      <trkpt lat="42.01835" lon="19.38508">
        <ele>53.516196</ele>
        <time>2022-05-26T08:40:59.257Z</time>
      </trkpt>
      <trkpt lat="42.01958" lon="19.38327">
        <ele>53.42704</ele>
        <time>2022-05-26T08:41:37.261Z</time>
      </trkpt>
      <trkpt lat="42.02057" lon="19.38099">
        <ele>53.674769</ele>
        <time>2022-05-26T08:42:20.221Z</time>
      </trkpt>
      <trkpt lat="42.02092" lon="19.37838">
        <ele>52.044936</ele>
        <time>2022-05-26T08:43:00.277Z</time>
      </trkpt>
      <trkpt lat="42.01912" lon="19.37647">
        <ele>52.965322</ele>
        <time>2022-05-26T08:43:40.276Z</time>
      </trkpt>
      <trkpt lat="42.01753" lon="19.37429">
        <ele>54.972285</ele>
        <time>2022-05-26T08:44:20.230Z</time>
      </trkpt>
      <trkpt lat="42.01663" lon="19.3716">
        <ele>54.859569</ele>
        <time>2022-05-26T08:53:05.243Z</time>
      </trkpt>
      <trkpt lat="42.01601" lon="19.36886">
        <ele>50.161872</ele>
        <time>2022-05-26T08:53:53.226Z</time>
      </trkpt>
      <trkpt lat="42.0152" lon="19.3665">
        <ele>50.248939</ele>
        <time>2022-05-26T08:54:33.234Z</time>
      </trkpt>
      <trkpt lat="42.01412" lon="19.36442">
        <ele>53.56333</ele>
        <time>2022-05-26T08:55:13.239Z</time>
      </trkpt>
      <trkpt lat="42.01216" lon="19.36288">
        <ele>59.402661</ele>
        <time>2022-05-26T08:56:00.237Z</time>
      </trkpt>
      <trkpt lat="42.01112" lon="19.36032">
        <ele>53.885074</ele>
        <time>2022-05-26T08:56:47.236Z</time>
      </trkpt>
      <trkpt lat="42.01133" lon="19.3578">
        <ele>53.248168</ele>
        <time>2022-05-26T08:57:28.243Z</time>
      </trkpt>
      <trkpt lat="42.01274" lon="19.35618">
        <ele>56.288005</ele>
        <time>2022-05-26T08:58:27.234Z</time>
      </trkpt>
      <trkpt lat="42.01174" lon="19.35377">
        <ele>58.16887</ele>
        <time>2022-05-26T08:59:07.248Z</time>
      </trkpt>
      <trkpt lat="42.01053" lon="19.35147">
        <ele>62.416065</ele>
        <time>2022-05-26T09:00:10.214Z</time>
      </trkpt>
      <trkpt lat="42.00936" lon="19.34919">
        <ele>60.686291</ele>
        <time>2022-05-26T09:00:52.280Z</time>
      </trkpt>
      <trkpt lat="42.01012" lon="19.3466">
        <ele>58.061302</ele>
        <time>2022-05-26T09:01:39.250Z</time>
      </trkpt>
      <trkpt lat="42.01069" lon="19.34334">
        <ele>58.103628</ele>
        <time>2022-05-26T09:02:38.245Z</time>
      </trkpt>
      <trkpt lat="42.01094" lon="19.34044">
        <ele>61.657427</ele>
        <time>2022-05-26T09:03:34.225Z</time>
      </trkpt>
      <trkpt lat="42.01074" lon="19.33771">
        <ele>62.810314</ele>
        <time>2022-05-26T09:04:21.230Z</time>
      </trkpt>
      <trkpt lat="42.01117" lon="19.33487">
        <ele>65.159527</ele>
        <time>2022-05-26T09:05:19.275Z</time>
      </trkpt>
      <trkpt lat="42.012" lon="19.33268">
        <ele>67.859349</ele>
        <time>2022-05-26T09:06:19.263Z</time>
      </trkpt>
      <trkpt lat="42.01032" lon="19.33083">
        <ele>66.81518</ele>
        <time>2022-05-26T09:06:59.234Z</time>
      </trkpt>
      <trkpt lat="42.00858" lon="19.32972">
        <ele>66.51796</ele>
        <time>2022-05-26T09:07:39.234Z</time>
      </trkpt>
      <trkpt lat="42.0064" lon="19.32842">
        <ele>67.643791</ele>
        <time>2022-05-26T09:08:33.230Z</time>
      </trkpt>
      <trkpt lat="42.00526" lon="19.32626">
        <ele>74.430038</ele>
        <time>2022-05-26T09:09:52.239Z</time>
      </trkpt>
      <trkpt lat="42.0065" lon="19.32431">
        <ele>85.193829</ele>
        <time>2022-05-26T09:11:41.263Z</time>
      </trkpt>
      <trkpt lat="42.00758" lon="19.32176">
        <ele>82.619349</ele>
        <time>2022-05-26T09:12:40.235Z</time>
      </trkpt>
      <trkpt lat="42.00822" lon="19.31922">
        <ele>80.633882</ele>
        <time>2022-05-26T09:13:31.221Z</time>
      </trkpt>
      <trkpt lat="42.00906" lon="19.31683">
        <ele>84.04347</ele>
        <time>2022-05-26T09:14:13.239Z</time>
      </trkpt>
      <trkpt lat="42.01009" lon="19.31421">
        <ele>86.656099</ele>
        <time>2022-05-26T09:15:13.276Z</time>
      </trkpt>
      <trkpt lat="42.00926" lon="19.31159">
        <ele>84.052234</ele>
        <time>2022-05-26T09:16:03.277Z</time>
      </trkpt>
      <trkpt lat="42.00908" lon="19.30945">
        <ele>81.633438</ele>
        <time>2022-05-26T09:36:00.208Z</time>
      </trkpt>
      <trkpt lat="42.00771" lon="19.30798">
        <ele>81.311493</ele>
        <time>2022-05-26T09:36:39.218Z</time>
      </trkpt>
      <trkpt lat="42.00672" lon="19.30592">
        <ele>80.111196</ele>
        <time>2022-05-26T09:37:24.205Z</time>
      </trkpt>
      <trkpt lat="42.00487" lon="19.30499">
        <ele>80.008903</ele>
        <time>2022-05-26T09:38:04.209Z</time>
      </trkpt>
      <trkpt lat="42.00364" lon="19.30295">
        <ele>80.116165</ele>
        <time>2022-05-26T09:38:50.206Z</time>
      </trkpt>
      <trkpt lat="42.00305" lon="19.30017">
        <ele>83.087238</ele>
        <time>2022-05-26T09:39:39.216Z</time>
      </trkpt>
      <trkpt lat="42.00377" lon="19.29737">
        <ele>86.38905</ele>
        <time>2022-05-26T09:40:38.235Z</time>
      </trkpt>
      <trkpt lat="42.00525" lon="19.29526">
        <ele>87.907687</ele>
        <time>2022-05-26T09:41:38.226Z</time>
      </trkpt>
      <trkpt lat="42.0058" lon="19.29248">
        <ele>94.965321</ele>
        <time>2022-05-26T09:42:50.206Z</time>
      </trkpt>
      <trkpt lat="42.00668" lon="19.28984">
        <ele>96.61644</ele>
        <time>2022-05-26T09:43:49.207Z</time>
      </trkpt>
      <trkpt lat="42.00783" lon="19.28768">
        <ele>95.859275</ele>
        <time>2022-05-26T09:44:39.219Z</time>
      </trkpt>
      <trkpt lat="42.00873" lon="19.28493">
        <ele>98.747234</ele>
        <time>2022-05-26T09:45:32.216Z</time>
      </trkpt>
      <trkpt lat="42.0099" lon="19.28281">
        <ele>103.617107</ele>
        <time>2022-05-26T09:46:36.228Z</time>
      </trkpt>
      <trkpt lat="42.01036" lon="19.28029">
        <ele>116.348193</ele>
        <time>2022-05-26T09:48:18.204Z</time>
      </trkpt>
      <trkpt lat="42.01069" lon="19.27811">
        <ele>128.893208</ele>
        <time>2022-05-26T09:50:20.206Z</time>
      </trkpt>
      <trkpt lat="42.01196" lon="19.2761">
        <ele>132.676259</ele>
        <time>2022-05-26T09:51:52.211Z</time>
      </trkpt>
      <trkpt lat="42.01283" lon="19.27366">
        <ele>138.226025</ele>
        <time>2022-05-26T09:53:37.231Z</time>
      </trkpt>
      <trkpt lat="42.01334" lon="19.27128">
        <ele>141.470395</ele>
        <time>2022-05-26T09:55:13.209Z</time>
      </trkpt>
      <trkpt lat="42.01422" lon="19.26873">
        <ele>143.11272</ele>
        <time>2022-05-26T09:56:11.208Z</time>
      </trkpt>
      <trkpt lat="42.01506" lon="19.26616">
        <ele>143.414299</ele>
        <time>2022-05-26T09:57:07.216Z</time>
      </trkpt>
      <trkpt lat="42.01415" lon="19.26412">
        <ele>151.576872</ele>
        <time>2022-05-26T09:58:22.220Z</time>
      </trkpt>
      <trkpt lat="42.01391" lon="19.26149">
        <ele>160.030304</ele>
        <time>2022-05-26T10:00:00.212Z</time>
      </trkpt>
      <trkpt lat="42.01408" lon="19.25888">
        <ele>166.163084</ele>
        <time>2022-05-26T10:01:39.198Z</time>
      </trkpt>
      <trkpt lat="42.01461" lon="19.25624">
        <ele>173.010856</ele>
        <time>2022-05-26T10:03:18.205Z</time>
      </trkpt>
      <trkpt lat="42.01502" lon="19.25365">
        <ele>183.44507</ele>
        <time>2022-05-26T10:05:04.206Z</time>
      </trkpt>
      <trkpt lat="42.01502" lon="19.25108">
        <ele>192.164305</ele>
        <time>2022-05-26T10:06:40.212Z</time>
      </trkpt>
      <trkpt lat="42.01469" lon="19.24843">
        <ele>199.358307</ele>
        <time>2022-05-26T10:08:12.220Z</time>
      </trkpt>
      <trkpt lat="42.01571" lon="19.24623">
        <ele>206.64051</ele>
        <time>2022-05-26T10:10:05.255Z</time>
      </trkpt>
      <trkpt lat="42.01591" lon="19.24354">
        <ele>211.16897</ele>
        <time>2022-05-26T10:11:49.207Z</time>
      </trkpt>
      <trkpt lat="42.01607" lon="19.24075">
        <ele>214.057341</ele>
        <time>2022-05-26T10:13:28.231Z</time>
      </trkpt>
      <trkpt lat="42.01688" lon="19.23835">
        <ele>217.448865</ele>
        <time>2022-05-26T10:14:50.234Z</time>
      </trkpt>
      <trkpt lat="42.01755" lon="19.23588">
        <ele>226.854602</ele>
        <time>2022-05-26T10:16:41.227Z</time>
      </trkpt>
      <trkpt lat="42.01827" lon="19.23337">
        <ele>231.565312</ele>
        <time>2022-05-26T10:18:25.233Z</time>
      </trkpt>
      <trkpt lat="42.01889" lon="19.23072">
        <ele>232.969481</ele>
        <time>2022-05-26T10:19:30.229Z</time>
      </trkpt>
      <trkpt lat="42.01928" lon="19.22827">
        <ele>235.411412</ele>
        <time>2022-05-26T10:20:27.291Z</time>
      </trkpt>
      <trkpt lat="42.02006" lon="19.22584">
        <ele>239.21041</ele>
        <time>2022-05-26T10:22:00.219Z</time>
      </trkpt>
      <trkpt lat="42.02124" lon="19.22362">
        <ele>243.171387</ele>
        <time>2022-05-26T10:23:24.232Z</time>
      </trkpt>
      <trkpt lat="42.02225" lon="19.22118">
        <ele>247.809188</ele>
        <time>2022-05-26T10:24:41.237Z</time>
      </trkpt>
      <trkpt lat="42.02295" lon="19.21898">
        <ele>250.158226</ele>
        <time>2022-05-26T10:26:09.225Z</time>
      </trkpt>
      <trkpt lat="42.02399" lon="19.21652">
        <ele>253.52249</ele>
        <time>2022-05-26T10:27:24.244Z</time>
      </trkpt>
      <trkpt lat="42.02461" lon="19.21388">
        <ele>255.585223</ele>
        <time>2022-05-26T10:28:41.200Z</time>
      </trkpt>
      <trkpt lat="42.02527" lon="19.21125">
        <ele>261.502725</ele>
        <time>2022-05-26T10:30:04.211Z</time>
      </trkpt>
      <trkpt lat="42.02577" lon="19.20865">
        <ele>265.942446</ele>
        <time>2022-05-26T10:31:41.202Z</time>
      </trkpt>
      <trkpt lat="42.02543" lon="19.20599">
        <ele>268.609846</ele>
        <time>2022-05-26T10:33:14.200Z</time>
      </trkpt>
      <trkpt lat="42.02492" lon="19.20327">
        <ele>269.660519</ele>
        <time>2022-05-26T10:34:28.207Z</time>
      </trkpt>
      <trkpt lat="42.02429" lon="19.20045">
        <ele>268.931969</ele>
        <time>2022-05-26T10:35:30.213Z</time>
      </trkpt>
      <trkpt lat="42.02447" lon="19.19755">
        <ele>269.467803</ele>
        <time>2022-05-26T10:36:30.208Z</time>
      </trkpt>
      <trkpt lat="42.0243" lon="19.19476">
        <ele>268.455459</ele>
        <time>2022-05-26T10:37:30.211Z</time>
      </trkpt>
      <trkpt lat="42.0239" lon="19.19205">
        <ele>264.040362</ele>
        <time>2022-05-26T10:38:17.206Z</time>
      </trkpt>
      <trkpt lat="42.02433" lon="19.18932">
        <ele>263.413723</ele>
        <time>2022-05-26T10:39:05.208Z</time>
      </trkpt>
      <trkpt lat="42.0252" lon="19.18645">
        <ele>259.924994</ele>
        <time>2022-05-26T10:39:35.212Z</time>
      </trkpt>
      <trkpt lat="42.02631" lon="19.18376">
        <ele>253.828711</ele>
        <time>2022-05-26T10:40:26.210Z</time>
      </trkpt>
      <trkpt lat="42.02677" lon="19.18105">
        <ele>249.945652</ele>
        <time>2022-05-26T10:41:28.215Z</time>
      </trkpt>
      <trkpt lat="42.02785" lon="19.17864">
        <ele>247.144255</ele>
        <time>2022-05-26T10:42:12.206Z</time>
      </trkpt>
      <trkpt lat="42.0291" lon="19.17607">
        <ele>243.019435</ele>
        <time>2022-05-26T10:43:02.242Z</time>
      </trkpt>
      <trkpt lat="42.03085" lon="19.17462">
        <ele>242.753997</ele>
        <time>2022-05-26T10:43:47.224Z</time>
      </trkpt>
      <trkpt lat="42.0324" lon="19.17302">
        <ele>245.361541</ele>
        <time>2022-05-26T10:44:52.220Z</time>
      </trkpt>
      <trkpt lat="42.03374" lon="19.17116">
        <ele>245.841738</ele>
        <time>2022-05-26T10:49:03.212Z</time>
      </trkpt>
      <trkpt lat="42.03514" lon="19.1692">
        <ele>244.178348</ele>
        <time>2022-05-26T10:50:06.205Z</time>
      </trkpt>
      <trkpt lat="42.03703" lon="19.16713">
        <ele>241.386561</ele>
        <time>2022-05-26T10:51:05.203Z</time>
      </trkpt>
      <trkpt lat="42.03828" lon="19.16459">
        <ele>242.310062</ele>
        <time>2022-05-26T10:52:00.227Z</time>
      </trkpt>
      <trkpt lat="42.03921" lon="19.16228">
        <ele>243.348628</ele>
        <time>2022-05-26T10:52:59.215Z</time>
      </trkpt>
      <trkpt lat="42.04067" lon="19.16032">
        <ele>247.672185</ele>
        <time>2022-05-26T10:53:59.223Z</time>
      </trkpt>
      <trkpt lat="42.04156" lon="19.15791">
        <ele>250.16704</ele>
        <time>2022-05-26T10:55:08.229Z</time>
      </trkpt>
      <trkpt lat="42.04245" lon="19.15576">
        <ele>249.233981</ele>
        <time>2022-05-26T10:56:14.211Z</time>
      </trkpt>
      <trkpt lat="42.04318" lon="19.15311">
        <ele>250.985934</ele>
        <time>2022-05-26T10:57:16.220Z</time>
      </trkpt>
      <trkpt lat="42.04455" lon="19.15119">
        <ele>256.997046</ele>
        <time>2022-05-26T10:58:21.237Z</time>
      </trkpt>
      <trkpt lat="42.04596" lon="19.14937">
        <ele>257.935669</ele>
        <time>2022-05-26T10:59:27.216Z</time>
      </trkpt>
      <trkpt lat="42.04765" lon="19.14727">
        <ele>253.560132</ele>
        <time>2022-05-26T11:00:24.230Z</time>
      </trkpt>
      <trkpt lat="42.04828" lon="19.14426">
        <ele>240.518118</ele>
        <time>2022-05-26T11:01:04.211Z</time>
      </trkpt>
      <trkpt lat="42.05004" lon="19.14284">
        <ele>243.300415</ele>
        <time>2022-05-26T11:02:04.208Z</time>
      </trkpt>
      <trkpt lat="42.0521" lon="19.14148">
        <ele>244.810486</ele>
        <time>2022-05-26T11:02:57.213Z</time>
      </trkpt>
      <trkpt lat="42.05346" lon="19.13948">
        <ele>241.266429</ele>
        <time>2022-05-26T11:03:42.224Z</time>
      </trkpt>
      <trkpt lat="42.05485" lon="19.13728">
        <ele>236.212215</ele>
        <time>2022-05-26T11:07:31.198Z</time>
      </trkpt>
      <trkpt lat="42.05605" lon="19.13476">
        <ele>223.179674</ele>
        <time>2022-05-26T11:08:29.232Z</time>
      </trkpt>
      <trkpt lat="42.05593" lon="19.13239">
        <ele>204.293796</ele>
        <time>2022-05-26T11:09:18.210Z</time>
      </trkpt>
      <trkpt lat="42.05711" lon="19.13491">
        <ele>189.628444</ele>
        <time>2022-05-26T11:10:04.207Z</time>
      </trkpt>
      <trkpt lat="42.05898" lon="19.13546">
        <ele>178.905982</ele>
        <time>2022-05-26T11:10:50.204Z</time>
      </trkpt>
      <trkpt lat="42.06111" lon="19.13515">
        <ele>167.356207</ele>
        <time>2022-05-26T11:11:32.209Z</time>
      </trkpt>
      <trkpt lat="42.06287" lon="19.13397">
        <ele>155.304691</ele>
        <time>2022-05-26T11:12:17.205Z</time>
      </trkpt>
      <trkpt lat="42.06494" lon="19.13302">
        <ele>143.352956</ele>
        <time>2022-05-26T11:13:06.233Z</time>
      </trkpt>
      <trkpt lat="42.06714" lon="19.13317">
        <ele>127.552125</ele>
        <time>2022-05-26T11:13:50.207Z</time>
      </trkpt>
      <trkpt lat="42.06906" lon="19.13209">
        <ele>128.04053</ele>
        <time>2022-05-26T11:14:55.197Z</time>
      </trkpt>
      <trkpt lat="42.0708" lon="19.13117">
        <ele>127.768919</ele>
        <time>2022-05-26T11:15:52.203Z</time>
      </trkpt>
      <trkpt lat="42.07285" lon="19.13101">
        <ele>116.858763</ele>
        <time>2022-05-26T11:16:34.212Z</time>
      </trkpt>
      <trkpt lat="42.07426" lon="19.12988">
        <ele>105.869178</ele>
        <time>2022-05-26T11:17:15.203Z</time>
      </trkpt>
      <trkpt lat="42.07651" lon="19.12938">
        <ele>98.917686</ele>
        <time>2022-05-26T11:18:06.205Z</time>
      </trkpt>
      <trkpt lat="42.07829" lon="19.12971">
        <ele>93.425058</ele>
        <time>2022-05-26T11:18:55.197Z</time>
      </trkpt>
      <trkpt lat="42.08048" lon="19.12897">
        <ele>87.225162</ele>
        <time>2022-05-26T11:19:39.209Z</time>
      </trkpt>
      <trkpt lat="42.08243" lon="19.12954">
        <ele>86.713774</ele>
        <time>2022-05-26T11:20:22.202Z</time>
      </trkpt>
      <trkpt lat="42.08394" lon="19.13136">
        <ele>89.640775</ele>
        <time>2022-05-26T11:21:27.199Z</time>
      </trkpt>
      <trkpt lat="42.08567" lon="19.13111">
        <ele>89.136397</ele>
        <time>2022-05-26T11:22:24.208Z</time>
      </trkpt>
      <trkpt lat="42.08773" lon="19.13098">
        <ele>95.704128</ele>
        <time>2022-05-26T11:23:52.196Z</time>
      </trkpt>
      <trkpt lat="42.0893" lon="19.12948">
        <ele>104.808124</ele>
        <time>2022-05-26T11:25:29.205Z</time>
      </trkpt>
      <trkpt lat="42.08932" lon="19.12685">
        <ele>109.211615</ele>
        <time>2022-05-26T11:26:57.199Z</time>
      </trkpt>
      <trkpt lat="42.09089" lon="19.12542">
        <ele>111.196078</ele>
        <time>2022-05-26T11:28:05.208Z</time>
      </trkpt>
      <trkpt lat="42.09128" lon="19.12184">
        <ele>97.052207</ele>
        <time>2022-05-26T11:28:43.199Z</time>
      </trkpt>
      <trkpt lat="42.09231" lon="19.11907">
        <ele>88.961704</ele>
        <time>2022-05-26T11:29:31.196Z</time>
      </trkpt>
      <trkpt lat="42.09265" lon="19.11559">
        <ele>76.450323</ele>
        <time>2022-05-26T11:30:11.201Z</time>
      </trkpt>
      <trkpt lat="42.09259" lon="19.11261">
        <ele>63.249981</ele>
        <time>2022-05-26T11:30:54.214Z</time>
      </trkpt>
      <trkpt lat="42.09199" lon="19.11081">
        <ele>58.294233</ele>
        <time>2022-05-26T11:31:49.194Z</time>
      </trkpt>
      <trkpt lat="42.09223" lon="19.11027">
        <ele>60.760501</ele>
        <time>2022-05-26T11:32:36.207Z</time>
      </trkpt>
      <trkpt lat="42.09261" lon="19.10752">
        <ele>55.247987</ele>
        <time>2022-05-26T11:33:42.201Z</time>
      </trkpt>
      <trkpt lat="42.09308" lon="19.10368">
        <ele>43.67655</ele>
        <time>2022-05-26T11:34:22.197Z</time>
      </trkpt>
      <trkpt lat="42.09346" lon="19.10072">
        <ele>41.39004</ele>
        <time>2022-05-26T11:35:02.222Z</time>
      </trkpt>
      <trkpt lat="42.09389" lon="19.09818">
        <ele>43.108002</ele>
        <time>2022-05-26T11:35:44.230Z</time>
      </trkpt>
      <trkpt lat="42.09484" lon="19.0962">
        <ele>47.154497</ele>
        <time>2022-05-26T11:36:35.237Z</time>
      </trkpt>
      <trkpt lat="42.09618" lon="19.09443">
        <ele>47.469132</ele>
        <time>2022-05-26T11:37:38.241Z</time>
      </trkpt>
      <trkpt lat="42.09664" lon="19.09369">
        <ele>47.469132</ele>
        <time>2022-05-26T11:45:12.211Z</time>
      </trkpt>
    </trkseg>
  </trk>
</gpx>